No particular awareness of the weather is required.    There are no Weather-warnings


Meteo18 Weather Cam more information Meteo18 Weather Cam


Thunder radar more information blitzortung!


Rain radar more information rain snow radar


Visit our other weather sites:

Template documentation
and downloads

And another site



Weather Underground History page Text

Daily Summary for January 13, 2017 Units:  Metric    English   Both
« Previous Day
Next Day »
Daily Weekly Monthly Yearly Custom
  High: Low: Average:
Temperature: -17.8 °C -17.6 °C -16.3 °C
Dew Point: -17.8 °C -18.3 °C -17.7 °C
Humidity: Humidity % 74 % 84 %
Wind Speed: 0 km/h 0 km/h 20.4 km/h
Wind Gust: 0 km/h - -
Wind:- - West
Pressure: 0 hPa 34073.3 hPa -
Precipitation: 20.32 mm    
Historical Graphs
 
 
Tabular Data for January 13, 2017
Time Temperature Dew Point Pressure Wind Wind Speed Wind Gust Humidity Rainfall Rate (Hourly)
-17.8 °C -17.8 °C 0 hPa Calm     Humidity % 0 mm
00:02 -14.5 °C -16.7 °C 34073.3 hPa WNW 57 km/h 82.9 km/h 76 % 0 mm
00:12 -14.6 °C -16.7 °C 34086.9 hPa West 36.2 km/h 77.7 km/h 76 % 0 mm
00:22 -14.7 °C -16.8 °C 34086.9 hPa West 49.2 km/h 67.3 km/h 76 % 0 mm
00:27 -14.8 °C -16.9 °C 34086.9 hPa West 25.9 km/h 75.2 km/h 76 % 0 mm
00:32 -14.8 °C -17.1 °C 34097 hPa WNW 25.9 km/h 75.2 km/h 75 % 0 mm
00:42 -14.9 °C -17 °C 34107.2 hPa West 25.9 km/h 85.5 km/h 77 % 0 mm
00:52 -15.1 °C -17.2 °C 34120.7 hPa WNW 28.5 km/h 95.8 km/h 76 % 0 mm
01:02 -15.2 °C -17.5 °C 34130.9 hPa West 25.9 km/h 72.6 km/h 74 % 0 mm
01:12 -15.3 °C -17.6 °C 34130.9 hPa West 36.2 km/h 82.9 km/h 75 % 0 mm
01:22 -15.4 °C -17.4 °C 34144.4 hPa WNW 31.1 km/h 59.5 km/h 77 % 0 mm
01:27 -15.4 °C -17.3 °C 34144.4 hPa WSW 23.3 km/h 59.5 km/h 78 % 0 mm
01:37 -15.6 °C -17.1 °C 34144.4 hPa WNW 20.8 km/h 54.4 km/h 83 % 0 mm
01:42 -15.7 °C -17.1 °C 34144.4 hPa West 20.8 km/h 54.4 km/h 83 % 0 mm
01:52 -15.7 °C -17.1 °C 34144.4 hPa West 44.1 km/h 69.8 km/h 84 % 0 mm
01:57 -15.7 °C -17.1 °C 34154.6 hPa West 20.8 km/h 69.8 km/h 84 % 0 mm
02:02 -15.7 °C -17.1 °C 34154.6 hPa West 28.5 km/h 69.8 km/h 84 % 0 mm
02:12 -15.7 °C -17.3 °C 34164.7 hPa WSW 23.3 km/h 51.8 km/h 82 % 0 mm
02:17 -15.7 °C -17.3 °C 34154.6 hPa WSW 25.9 km/h 62.1 km/h 82 % 0 mm
02:22 -15.7 °C -17.3 °C 34164.7 hPa WNW 20.8 km/h 62.1 km/h 82 % 0 mm
02:32 -15.8 °C -17.4 °C 34178.3 hPa West 31.1 km/h 54.4 km/h 82 % 0 mm
02:37 -15.9 °C -17.4 °C 34178.3 hPa WNW 36.2 km/h 54.4 km/h 82 % 0 mm
02:42 -15.9 °C -17.6 °C 34178.3 hPa West 23.3 km/h 49.2 km/h 81 % 0 mm
02:52 -15.9 °C -17.5 °C 34178.3 hPa West 46.7 km/h 59.5 km/h 82 % 0 mm
02:57 -15.9 °C -17.5 °C 34178.3 hPa West 15.6 km/h 59.5 km/h 82 % 0 mm
03:02 -16 °C -17.6 °C 34178.3 hPa West 15.6 km/h 54.4 km/h 82 % 0 mm
03:07 -16 °C -17.4 °C 34178.3 hPa West 25.9 km/h 54.4 km/h 83 % 0 mm
03:12 -16 °C -17.4 °C 34178.3 hPa West 31.1 km/h 44.1 km/h 83 % 0 mm
03:17 -16 °C -17.4 °C 34178.3 hPa WSW 23.3 km/h 44.1 km/h 83 % 0 mm
03:22 -16 °C -17.6 °C 34178.3 hPa WSW 23.3 km/h 54.4 km/h 82 % 0 mm
03:27 -16.1 °C -17.6 °C 34178.3 hPa West 33.6 km/h 54.4 km/h 82 % 0 mm
03:32 -16.1 °C -17.6 °C 34188.4 hPa West 33.6 km/h 54.4 km/h 82 % 0 mm
03:37 -16.1 °C -17.7 °C 34188.4 hPa WSW 18.2 km/h 57 km/h 81 % 0 mm
03:42 -16.2 °C -17.9 °C 34188.4 hPa West 33.6 km/h 57 km/h 80 % 0 mm
03:47 -16.2 °C -17.8 °C 34198.6 hPa WNW 18.2 km/h 57 km/h 81 % 0 mm
03:52 -16.3 °C -17.9 °C 34198.6 hPa WSW 28.5 km/h 46.7 km/h 81 % 0 mm
04:02 -16.3 °C -17.9 °C 34198.6 hPa WNW 23.3 km/h 46.7 km/h 82 % 0 mm
04:12 -16.3 °C -17.8 °C 34198.6 hPa WNW 44.1 km/h 49.2 km/h 83 % 0 mm
04:17 -16.4 °C -17.9 °C 34198.6 hPa WNW 20.8 km/h 49.2 km/h 83 % 0 mm
04:22 -16.5 °C -17.8 °C 34198.6 hPa West 41.4 km/h 49.2 km/h 84 % 0 mm
04:32 -16.5 °C -17.8 °C 34198.6 hPa WSW 15.6 km/h 57 km/h 85 % 0 mm
04:37 -16.6 °C -17.8 °C 34198.6 hPa West 62.1 km/h 62.1 km/h 85 % 0 mm
04:42 -16.6 °C -17.7 °C 34198.6 hPa West 15.6 km/h 67.3 km/h 86 % 0 mm
04:47 -16.6 °C -17.9 °C 34188.4 hPa WNW 18.2 km/h 67.3 km/h 85 % 0 mm
04:52 -16.7 °C -17.9 °C 34188.4 hPa West 20.8 km/h 67.3 km/h 85 % 0 mm
04:57 -16.7 °C -17.9 °C 34188.4 hPa WSW 44.1 km/h 67.3 km/h 85 % 0 mm
05:02 -16.7 °C -18 °C 34188.4 hPa West 25.9 km/h 54.4 km/h 85 % 0 mm
05:07 -16.7 °C -18 °C 34198.6 hPa West 31.1 km/h 54.4 km/h 85 % 0 mm
05:12 -16.7 °C -17.9 °C 34198.6 hPa WNW 25.9 km/h 49.2 km/h 86 % 0 mm
05:17 -16.7 °C -17.9 °C 34198.6 hPa West 10.3 km/h 49.2 km/h 86 % 0 mm
05:22 -16.7 °C -17.8 °C 34198.6 hPa WNW 28.5 km/h 49.2 km/h 86 % 0 mm
05:32 -16.7 °C -17.9 °C 34198.6 hPa WNW 28.5 km/h 51.8 km/h 86 % 0 mm
05:37 -16.7 °C -18 °C 34198.6 hPa WNW 15.6 km/h 51.8 km/h 85 % 0 mm
05:42 -16.7 °C -18 °C 34198.6 hPa West 20.8 km/h 46.7 km/h 85 % 0 mm
05:47 -16.7 °C -17.9 °C 34212.1 hPa West 20.8 km/h 46.7 km/h 86 % 0 mm
05:52 -16.7 °C -18 °C 34212.1 hPa WSW 25.9 km/h 46.7 km/h 85 % 0 mm
05:57 -16.7 °C -18 °C 34212.1 hPa West 12.9 km/h 46.7 km/h 85 % 0 mm
06:02 -16.7 °C -18 °C 34212.1 hPa West 28.5 km/h 46.7 km/h 85 % 0 mm
06:07 -16.7 °C -17.9 °C 34222.3 hPa WSW 31.1 km/h 49.2 km/h 85 % 0 mm
06:12 -16.7 °C -17.9 °C 34222.3 hPa West 20.8 km/h 49.2 km/h 85 % 0 mm
06:17 -16.7 °C -18 °C 34222.3 hPa West 20.8 km/h 54.4 km/h 85 % 0 mm
06:22 -16.8 °C -17.9 °C 34222.3 hPa WSW 31.1 km/h 54.4 km/h 86 % 0 mm
06:27 -16.8 °C -17.9 °C 34222.3 hPa WSW 20.8 km/h 54.4 km/h 86 % 0 mm
06:32 -16.8 °C -17.9 °C 34222.3 hPa West 31.1 km/h 36.2 km/h 86 % 0 mm
06:37 -16.8 °C -17.8 °C 34222.3 hPa West 18.2 km/h 36.2 km/h 87 % 0 mm
06:42 -16.8 °C -17.8 °C 34222.3 hPa WNW 15.6 km/h 36.2 km/h 87 % 0 mm
06:47 -16.8 °C -17.8 °C 34222.3 hPa West 38.8 km/h 38.8 km/h 87 % 0 mm
06:57 -16.8 °C -17.9 °C 34222.3 hPa WSW 23.3 km/h 46.7 km/h 87 % 0 mm
07:02 -16.9 °C -17.9 °C 34222.3 hPa WSW 28.5 km/h 46.7 km/h 87 % 0 mm
07:12 -16.9 °C -17.9 °C 34222.3 hPa West 18.2 km/h 38.8 km/h 88 % 0 mm
07:17 -16.9 °C -17.9 °C 34235.8 hPa SW 31.1 km/h 38.8 km/h 88 % 0 mm
07:22 -16.9 °C -17.9 °C 34235.8 hPa West 12.9 km/h 38.8 km/h 88 % 0 mm
07:27 -17 °C -17.9 °C 34235.8 hPa WSW 28.5 km/h 38.8 km/h 89 % 0 mm
07:32 -17.1 °C -17.9 °C 34235.8 hPa West 23.3 km/h 38.8 km/h 90 % 0 mm
07:37 -17.1 °C -17.8 °C 34235.8 hPa WSW 23.3 km/h 38.8 km/h 91 % 0 mm
07:42 -17.2 °C -17.9 °C 34235.8 hPa WSW 18.2 km/h 38.8 km/h 91 % 0 mm
07:47 -17.2 °C -17.8 °C 34235.8 hPa West 28.5 km/h 33.6 km/h 92 % 0 mm
07:52 -17.2 °C -17.8 °C 34235.8 hPa WSW 15.6 km/h 31.1 km/h 92 % 0 mm
07:57 -17.1 °C -17.8 °C 34235.8 hPa WSW 15.6 km/h 33.6 km/h 91 % 0 mm
08:02 -17.1 °C -17.8 °C 34235.8 hPa WSW 18.2 km/h 33.6 km/h 91 % 0 mm
08:07 -17.1 °C -17.8 °C 34235.8 hPa WSW 10.3 km/h 33.6 km/h 91 % 0 mm
08:12 -17.1 °C -17.8 °C 34235.8 hPa West 20.8 km/h 36.2 km/h 91 % 0 mm
08:17 -17.2 °C -17.8 °C 34235.8 hPa WSW 15.6 km/h 36.2 km/h 92 % 0 mm
08:22 -17.3 °C -17.9 °C 34235.8 hPa WSW 10.3 km/h 36.2 km/h 93 % 0 mm
08:32 -17.4 °C -17.9 °C 34235.8 hPa SSW 2.6 km/h 33.6 km/h 94 % 0 mm
08:37 -17.5 °C -17.9 °C 34235.8 hPa West 7.7 km/h 31.1 km/h 95 % 0 mm
08:42 -17.6 °C -17.9 °C 34235.8 hPa WSW 12.9 km/h 25.9 km/h 95 % 0 mm
08:52 -17.6 °C -17.9 °C 34235.8 hPa WSW 15.6 km/h 25.9 km/h 95 % 0 mm
08:57 -17.6 °C -17.9 °C 34235.8 hPa WSW 7.7 km/h 31.1 km/h 95 % 0 mm
09:02 -17.6 °C -17.9 °C 34235.8 hPa West 7.7 km/h 31.1 km/h 96 % 0 mm
09:07 -17.6 °C -17.9 °C 34235.8 hPa West 12.9 km/h 25.9 km/h 96 % 0 mm
09:12 -17.6 °C -17.9 °C 34246 hPa West 10.3 km/h 28.5 km/h 96 % 0 mm
09:17 -17.6 °C -17.9 °C 34246 hPa WSW 12.9 km/h 28.5 km/h 96 % 0 mm
09:22 -17.5 °C -17.8 °C 34246 hPa West 15.6 km/h 28.5 km/h 96 % 0 mm
09:27 -17.4 °C -17.8 °C 34246 hPa West 15.6 km/h 28.5 km/h 95 % 0 mm
09:32 -17.4 °C -17.8 °C 34246 hPa WNW 15.6 km/h 28.5 km/h 95 % 0 mm
09:37 -17.4 °C -17.8 °C 34246 hPa SW 5.1 km/h 25.9 km/h 95 % 0 mm
09:42 -17.4 °C -17.8 °C 34256.2 hPa West 10.3 km/h 25.9 km/h 95 % 0 mm
09:47 -17.4 °C -17.8 °C 34256.2 hPa WSW 15.6 km/h 25.9 km/h 95 % 0 mm
09:52 -17.4 °C -17.8 °C 34256.2 hPa WNW 5.1 km/h 23.3 km/h 95 % 0 mm
09:57 -17.3 °C -17.7 °C 34256.2 hPa SW 2.6 km/h 23.3 km/h 95 % 0 mm
10:02 -17.3 °C -17.8 °C 34256.2 hPa West 5.1 km/h 18.2 km/h 94 % 0 mm
10:12 -17.3 °C -17.8 °C 34256.2 hPa Calm   15.6 km/h 94 % 0 mm
10:17 -17.2 °C -17.7 °C 34256.2 hPa Calm   15.6 km/h 94 % 0 mm
10:22 -17.2 °C -17.7 °C 34256.2 hPa SW 12.9 km/h 12.9 km/h 94 % 0 mm
10:32 -17.1 °C -17.7 °C 34256.2 hPa WNW 18.2 km/h 23.3 km/h 93 % 0 mm
10:37 -17.1 °C -17.6 °C 34256.2 hPa WSW 5.1 km/h 23.3 km/h 93 % 7.62 mm
10:42 -17.1 °C -17.6 °C 34256.2 hPa West 15.6 km/h 31.1 km/h 93 % 7.62 mm
10:52 -17.1 °C -17.6 °C 34256.2 hPa WNW 7.7 km/h 25.9 km/h 93 % 7.62 mm
10:57 -17.1 °C -17.6 °C 34256.2 hPa West 23.3 km/h 25.9 km/h 93 % 7.62 mm
11:02 -17.1 °C -17.6 °C 34256.2 hPa WNW 12.9 km/h 36.2 km/h 93 % 7.62 mm
11:07 -17 °C -17.6 °C 34256.2 hPa WSW 10.3 km/h 44.1 km/h 93 % 12.7 mm
11:12 -17 °C -17.6 °C 34269.7 hPa WNW 7.7 km/h 44.1 km/h 93 % 12.7 mm
11:17 -17 °C -17.6 °C 34269.7 hPa WNW 20.8 km/h 44.1 km/h 93 % 12.7 mm
11:22 -16.9 °C -17.6 °C 34269.7 hPa West 10.3 km/h 31.1 km/h 92 % 12.7 mm
11:32 -16.9 °C -17.6 °C 34279.9 hPa WSW 12.9 km/h 31.1 km/h 92 % 7.62 mm
11:42 -16.8 °C -17.5 °C 34279.9 hPa WNW 7.7 km/h 41.4 km/h 92 % 7.62 mm
11:52 -16.8 °C -17.5 °C 34269.7 hPa NW 15.6 km/h 33.6 km/h 92 % 7.62 mm
11:57 -16.8 °C -17.4 °C 34279.9 hPa WNW 23.3 km/h 33.6 km/h 92 % 7.62 mm
12:02 -16.7 °C -17.4 °C 34279.9 hPa NW 10.3 km/h 33.6 km/h 92 % 0 mm
12:12 -16.6 °C -17.3 °C 34279.9 hPa NW 5.1 km/h 36.2 km/h 92 % 0 mm
12:17 -16.6 °C -17.3 °C 34279.9 hPa WNW 25.9 km/h 36.2 km/h 91 % 0 mm
12:22 -16.6 °C -17.3 °C 34279.9 hPa WNW 25.9 km/h 36.2 km/h 92 % 0 mm
12:32 -16.6 °C -17.3 °C 34293.4 hPa NNW 12.9 km/h 38.8 km/h 92 % 0 mm
12:37 -16.6 °C -17.2 °C 34293.4 hPa WNW 25.9 km/h 46.7 km/h 92 % 0 mm
12:42 -16.6 °C -17.3 °C 34293.4 hPa WNW 18.2 km/h 46.7 km/h 91 % 0 mm
12:47 -16.5 °C -17.2 °C 34293.4 hPa WNW 25.9 km/h 46.7 km/h 91 % 0 mm
12:57 -16.4 °C -17.3 °C 34293.4 hPa NW 25.9 km/h 49.2 km/h 90 % 0 mm
13:02 -16.4 °C -17.2 °C 34293.4 hPa North 15.6 km/h 49.2 km/h 90 % 0 mm
13:07 -16.4 °C -17.3 °C 34293.4 hPa West 28.5 km/h 44.1 km/h 89 % 0 mm
13:12 -16.3 °C -17.2 °C 34293.4 hPa SW 36.2 km/h 44.1 km/h 89 % 0 mm
13:17 -16.1 °C -17 °C 34293.4 hPa NW 23.3 km/h 44.1 km/h 89 % 0 mm
13:22 -15.9 °C -16.8 °C 34293.4 hPa NW 18.2 km/h 36.2 km/h 89 % 0 mm
13:27 -15.9 °C -17.1 °C 34293.4 hPa NW 41.4 km/h 41.4 km/h 86 % 0 mm
13:32 -15.8 °C -17.1 °C 34293.4 hPa NW 12.9 km/h 49.2 km/h 85 % 0 mm
13:37 -15.7 °C -16.9 °C 34293.4 hPa West 23.3 km/h 49.2 km/h 85 % 0 mm
13:42 -15.7 °C -17.1 °C 34293.4 hPa NNW 23.3 km/h 54.4 km/h 83 % 0 mm
13:52 -15.7 °C -17.2 °C 34293.4 hPa NW 18.2 km/h 57 km/h 83 % 0 mm
13:57 -15.7 °C -17.3 °C 34293.4 hPa NW 20.8 km/h 57 km/h 81 % 0 mm
14:02 -15.7 °C -17.4 °C 34293.4 hPa WNW 23.3 km/h 59.5 km/h 80 % 0 mm
14:07 -15.6 °C -17.3 °C 34303.6 hPa NW 7.7 km/h 59.5 km/h 80 % 0 mm
14:12 -15.5 °C -17.4 °C 34303.6 hPa WNW 28.5 km/h 59.5 km/h 78 % 0 mm
14:17 -15.5 °C -17.2 °C 34303.6 hPa WNW 25.9 km/h 54.4 km/h 80 % 0 mm
14:22 -15.4 °C -17.4 °C 34303.6 hPa NNE 15.6 km/h 44.1 km/h 78 % 0 mm
14:27 -15.5 °C -17.4 °C 34313.7 hPa NNW 36.2 km/h 44.1 km/h 78 % 0 mm
14:32 -15.4 °C -17.4 °C 34313.7 hPa WNW 51.8 km/h 51.8 km/h 78 % 7.62 mm
14:37 -15.5 °C -17.3 °C 34313.7 hPa WNW 12.9 km/h 51.8 km/h 79 % 7.62 mm
14:42 -15.4 °C -17.4 °C 34313.7 hPa NNW 23.3 km/h 51.8 km/h 78 % 7.62 mm
14:47 -15.4 °C -17.4 °C 34313.7 hPa WNW 20.8 km/h 51.8 km/h 78 % 7.62 mm
14:52 -15.5 °C -17.6 °C 34327.3 hPa WNW 18.2 km/h 38.8 km/h 77 % 7.62 mm
14:57 -15.9 °C -17.3 °C 34327.3 hPa NW 38.8 km/h 51.8 km/h 84 % 7.62 mm
15:02 -16.5 °C -17.3 °C 34327.3 hPa WNW 38.8 km/h 90.6 km/h 90 % 7.62 mm
15:07 -16.6 °C -17.3 °C 34337.4 hPa WNW 18.2 km/h 90.6 km/h 91 % 7.62 mm
15:12 -16.6 °C -17.3 °C 34327.3 hPa West 25.9 km/h 59.5 km/h 91 % 7.62 mm
15:17 -16.6 °C -17.3 °C 34337.4 hPa West 7.7 km/h 46.7 km/h 91 % 7.62 mm
15:22 -16.7 °C -17.4 °C 34337.4 hPa West 25.9 km/h 46.7 km/h 91 % 7.62 mm
15:27 -16.8 °C -17.5 °C 34347.6 hPa WNW 10.3 km/h 51.8 km/h 92 % 12.7 mm
15:32 -16.9 °C -17.6 °C 34347.6 hPa West 15.6 km/h 51.8 km/h 92 % 7.62 mm
15:37 -16.9 °C -17.4 °C 34347.6 hPa WNW 12.9 km/h 51.8 km/h 93 % 7.62 mm
15:42 -16.7 °C -17.4 °C 34347.6 hPa WNW 10.3 km/h 28.5 km/h 92 % 7.62 mm
15:47 -16.5 °C -17.3 °C 34347.6 hPa West 5.1 km/h 31.1 km/h 90 % 7.62 mm
15:52 -16.4 °C -17.3 °C 34347.6 hPa WNW 12.9 km/h 31.1 km/h 89 % 7.62 mm
15:57 -16.3 °C -17.3 °C 34347.6 hPa WNW 20.8 km/h 31.1 km/h 87 % 7.62 mm
16:07 -16.1 °C -17.3 °C 34347.6 hPa West 18.2 km/h 31.1 km/h 85 % 7.62 mm
16:12 -16.1 °C -17.4 °C 34347.6 hPa WNW 28.5 km/h 36.2 km/h 84 % 7.62 mm
16:17 -16.1 °C -17.5 °C 34347.6 hPa WNW 23.3 km/h 38.8 km/h 83 % 7.62 mm
16:22 -16 °C -17.6 °C 34347.6 hPa West 15.6 km/h 38.8 km/h 82 % 7.62 mm
16:32 -16 °C -17.8 °C 34361.1 hPa WNW 31.1 km/h 44.1 km/h 79 % 0 mm
16:37 -15.9 °C -17.9 °C 34361.1 hPa SW 38.8 km/h 44.1 km/h 78 % 0 mm
16:42 -15.9 °C -17.9 °C 34361.1 hPa NNW 18.2 km/h 46.7 km/h 78 % 0 mm
16:52 -15.9 °C -17.9 °C 34361.1 hPa WNW 5.1 km/h 49.2 km/h 77 % 0 mm
16:57 -16 °C -18 °C 34361.1 hPa WNW 18.2 km/h 49.2 km/h 77 % 0 mm
17:02 -16.1 °C -18 °C 34371.3 hPa WNW 23.3 km/h 46.7 km/h 78 % 0 mm
17:07 -16.1 °C -18.1 °C 34361.1 hPa WNW 18.2 km/h 46.7 km/h 78 % 0 mm
17:12 -16.2 °C -18.1 °C 34371.3 hPa WNW 23.3 km/h 44.1 km/h 78 % 0 mm
17:17 -16.3 °C -18.1 °C 34361.1 hPa WNW 20.8 km/h 44.1 km/h 79 % 0 mm
17:22 -16.3 °C -18.1 °C 34361.1 hPa WNW 12.9 km/h 44.1 km/h 80 % 0 mm
17:32 -16.5 °C -18.1 °C 34361.1 hPa WNW 20.8 km/h 31.1 km/h 81 % 0 mm
17:37 -16.5 °C -18.1 °C 34361.1 hPa WNW 20.8 km/h 33.6 km/h 81 % 0 mm
17:42 -16.4 °C -18.1 °C 34361.1 hPa NW 20.8 km/h 38.8 km/h 81 % 0 mm
17:52 -16.4 °C -18.1 °C 34361.1 hPa WSW 15.6 km/h 46.7 km/h 81 % 0 mm
17:57 -16.4 °C -18.1 °C 34371.3 hPa WSW 15.6 km/h 46.7 km/h 80 % 0 mm
18:02 -16.4 °C -18.1 °C 34371.3 hPa West 12.9 km/h 46.7 km/h 80 % 0 mm
18:07 -16.3 °C -18.2 °C 34371.3 hPa WNW 23.3 km/h 38.8 km/h 79 % 0 mm
18:12 -16.3 °C -18.1 °C 34371.3 hPa WNW 20.8 km/h 44.1 km/h 79 % 0 mm
18:17 -16.2 °C -18.2 °C 34371.3 hPa WNW 2.6 km/h 44.1 km/h 78 % 0 mm
18:22 -16.2 °C -18.2 °C 34371.3 hPa NW 10.3 km/h 44.1 km/h 78 % 0 mm
18:27 -16.2 °C -18.2 °C 34371.3 hPa NW 20.8 km/h 41.4 km/h 77 % 0 mm
18:32 -16.2 °C -18.2 °C 34371.3 hPa WNW 23.3 km/h 44.1 km/h 77 % 0 mm
18:37 -16.2 °C -18.3 °C 34371.3 hPa WNW 18.2 km/h 44.1 km/h 76 % 0 mm
18:42 -16.1 °C -18.2 °C 34371.3 hPa WNW 20.8 km/h 44.1 km/h 76 % 0 mm
18:47 -16.1 °C -18.3 °C 34371.3 hPa WSW 31.1 km/h 36.2 km/h 75 % 0 mm
18:52 -16 °C -18.2 °C 34371.3 hPa West 12.9 km/h 41.4 km/h 75 % 0 mm
18:57 -16 °C -18.3 °C 34384.8 hPa WNW 23.3 km/h 41.4 km/h 74 % 0 mm
19:02 -16 °C -18.3 °C 34384.8 hPa West 18.2 km/h 41.4 km/h 74 % 0 mm
19:07 -15.9 °C -18.3 °C 34384.8 hPa West 15.6 km/h 36.2 km/h 74 % 0 mm
19:12 -15.9 °C -18.3 °C 34384.8 hPa WSW 25.9 km/h 38.8 km/h 74 % 0 mm
19:17 -15.9 °C -18.2 °C 34384.8 hPa WNW 18.2 km/h 41.4 km/h 74 % 0 mm
19:22 -15.9 °C -18.1 °C 34384.8 hPa West 25.9 km/h 54.4 km/h 75 % 0 mm
19:27 -15.9 °C -18.1 °C 34384.8 hPa West 23.3 km/h 54.4 km/h 75 % 0 mm
19:32 -15.9 °C -18.1 °C 34384.8 hPa West 31.1 km/h 54.4 km/h 76 % 0 mm
19:37 -15.9 °C -18.1 °C 34384.8 hPa West 25.9 km/h 54.4 km/h 76 % 0 mm
19:42 -15.9 °C -18.1 °C 34384.8 hPa WNW 20.8 km/h 54.4 km/h 76 % 0 mm
19:47 -15.9 °C -18.1 °C 34384.8 hPa West 28.5 km/h 46.7 km/h 76 % 0 mm
19:52 -15.9 °C -18.1 °C 34384.8 hPa WNW 44.1 km/h 46.7 km/h 76 % 0 mm
19:57 -15.9 °C -17.9 °C 34384.8 hPa WSW 25.9 km/h 57 km/h 77 % 0 mm
20:02 -16 °C -17.9 °C 34384.8 hPa West 33.6 km/h 57 km/h 78 % 0 mm
20:12 -16.1 °C -17.7 °C 34395 hPa West 31.1 km/h 51.8 km/h 81 % 0 mm
20:17 -16.2 °C -17.8 °C 34395 hPa West 25.9 km/h 49.2 km/h 81 % 0 mm
20:22 -16.2 °C -17.8 °C 34395 hPa WSW 28.5 km/h 46.7 km/h 81 % 0 mm
20:27 -16.2 °C -17.8 °C 34395 hPa WSW 31.1 km/h 46.7 km/h 81 % 0 mm
20:32 -16.2 °C -17.7 °C 34395 hPa West 18.2 km/h 49.2 km/h 82 % 0 mm
20:37 -16.2 °C -17.8 °C 34395 hPa WNW 18.2 km/h 49.2 km/h 82 % 0 mm
20:42 -16.2 °C -17.7 °C 34395 hPa NNW 20.8 km/h 49.2 km/h 83 % 0 mm
20:47 -16.3 °C -17.7 °C 34395 hPa West 23.3 km/h 49.2 km/h 83 % 0 mm
20:52 -16.3 °C -17.7 °C 34395 hPa West 15.6 km/h 49.2 km/h 83 % 0 mm
20:57 -16.3 °C -17.7 °C 34395 hPa West 23.3 km/h 33.6 km/h 83 % 0 mm
21:02 -16.2 °C -17.7 °C 34395 hPa West 15.6 km/h 33.6 km/h 83 % 0 mm
21:12 -16.2 °C -17.7 °C 34395 hPa WNW 10.3 km/h 33.6 km/h 83 % 0 mm
21:17 -16.2 °C -17.7 °C 34405.1 hPa WNW 23.3 km/h 38.8 km/h 82 % 0 mm
21:22 -16.1 °C -17.7 °C 34405.1 hPa WNW 28.5 km/h 38.8 km/h 81 % 0 mm
21:32 -16.1 °C -17.7 °C 34405.1 hPa WNW 10.3 km/h 38.8 km/h 81 % 0 mm
21:37 -16.1 °C -17.7 °C 34405.1 hPa West 7.7 km/h 33.6 km/h 81 % 0 mm
21:42 -16 °C -17.7 °C 34405.1 hPa WNW 20.8 km/h 28.5 km/h 80 % 0 mm
21:47 -15.9 °C -17.8 °C 34405.1 hPa WNW 18.2 km/h 28.5 km/h 79 % 0 mm
21:52 -15.9 °C -17.7 °C 34405.1 hPa WNW 18.2 km/h 31.1 km/h 80 % 0 mm
21:57 -15.9 °C -17.7 °C 34405.1 hPa West 12.9 km/h 31.1 km/h 80 % 0 mm
22:02 -15.9 °C -17.8 °C 34405.1 hPa West 15.6 km/h 31.1 km/h 79 % 0 mm
22:12 -15.9 °C -17.8 °C 34418.7 hPa WSW 10.3 km/h 25.9 km/h 79 % 0 mm
22:17 -15.9 °C -17.7 °C 34418.7 hPa WNW 18.2 km/h 28.5 km/h 80 % 0 mm
22:22 -15.9 °C -17.8 °C 34418.7 hPa WSW 10.3 km/h 28.5 km/h 79 % 0 mm
22:32 -15.9 °C -17.8 °C 34418.7 hPa West 7.7 km/h 28.5 km/h 79 % 0 mm
22:37 -15.9 °C -17.7 °C 34418.7 hPa SW 20.8 km/h 28.5 km/h 80 % 0 mm
22:42 -15.9 °C -17.7 °C 34418.7 hPa WSW 7.7 km/h 28.5 km/h 80 % 0 mm
22:47 -16 °C -17.7 °C 34428.8 hPa West 7.7 km/h 25.9 km/h 80 % 0 mm
22:52 -16 °C -17.7 °C 34428.8 hPa WNW 10.3 km/h 25.9 km/h 80 % 0 mm
22:57 -16.1 °C -17.7 °C 34428.8 hPa North 2.6 km/h 25.9 km/h 81 % 0 mm
23:02 -16.1 °C -17.8 °C 34442.4 hPa West 7.7 km/h 18.2 km/h 80 % 0 mm
23:12 -16 °C -17.7 °C 34442.4 hPa WSW 5.1 km/h 15.6 km/h 80 % 0 mm
23:17 -16 °C -17.6 °C 34442.4 hPa West 2.6 km/h 20.8 km/h 81 % 0 mm
23:22 -16 °C -17.7 °C 34442.4 hPa West 5.1 km/h 20.8 km/h 80 % 0 mm
23:27 -16 °C -17.7 °C 34442.4 hPa WSW 12.9 km/h 20.8 km/h 80 % 0 mm
23:32 -16 °C -17.7 °C 34442.4 hPa West 18.2 km/h 25.9 km/h 80 % 0 mm
23:37 -16 °C -17.7 °C 34442.4 hPa West 15.6 km/h 25.9 km/h 80 % 0 mm
23:42 -15.9 °C -17.7 °C 34442.4 hPa WNW 5.1 km/h 38.8 km/h 80 % 0 mm
23:47 -15.9 °C -17.7 °C 34442.4 hPa West 20.8 km/h 38.8 km/h 80 % 0 mm
23:52 -15.9 °C -17.7 °C 34452.6 hPa WNW 12.9 km/h 38.8 km/h 80 % 0 mm
23:57 -16 °C -17.7 °C 34452.6 hPa West 7.7 km/h 38.8 km/h 80 % 0 mm
Meteo18
Compliments of Weather Underground - 4 mb

Script developed by  Jim McMurry - jmcmurry@mwt.net Adapted for the template by  Wim van der Kuil - Leuven-Template.eu

You find our weather info also at:

European Weather Network

Weather Underground

Equipment we use:

Weather-station
Davis Vue

Weather-program
Meteobridge

Weather-server
Raspberry PI 2 B+

Provider
1 and 1

Davis Vue

Meteobridge

Raspberry PI 2 B+

1 and 1